sensor_id;sensor_type;location;lat;lon;timestamp;P1;durP1;ratioP1;P2;durP2;ratioP2
76723;SDS011;65650;53.126;17.950;2023-02-02T00:00:20;7.00;;;1.80;;
76723;SDS011;65650;53.126;17.950;2023-02-02T00:03:07;13.20;;;2.80;;
76723;SDS011;65650;53.126;17.950;2023-02-02T00:05:34;9.10;;;2.00;;
76723;SDS011;65650;53.126;17.950;2023-02-02T00:08:00;9.20;;;2.30;;
76723;SDS011;65650;53.126;17.950;2023-02-02T00:10:27;12.50;;;2.60;;
76723;SDS011;65650;53.126;17.950;2023-02-02T00:12:53;11.20;;;2.80;;
76723;SDS011;65650;53.126;17.950;2023-02-02T00:15:23;17.80;;;4.90;;
76723;SDS011;65650;53.126;17.950;2023-02-02T00:17:50;10.40;;;2.40;;
76723;SDS011;65650;53.126;17.950;2023-02-02T00:20:16;15.20;;;2.70;;
76723;SDS011;65650;53.126;17.950;2023-02-02T00:22:42;9.60;;;2.50;;
76723;SDS011;65650;53.126;17.950;2023-02-02T00:25:09;12.50;;;3.10;;
76723;SDS011;65650;53.126;17.950;2023-02-02T00:27:36;10.30;;;2.40;;
76723;SDS011;65650;53.126;17.950;2023-02-02T00:30:05;9.00;;;2.70;;
76723;SDS011;65650;53.126;17.950;2023-02-02T00:32:32;15.50;;;2.30;;
76723;SDS011;65650;53.126;17.950;2023-02-02T00:34:59;10.70;;;1.90;;
76723;SDS011;65650;53.126;17.950;2023-02-02T00:37:25;9.30;;;2.50;;
76723;SDS011;65650;53.126;17.950;2023-02-02T00:39:52;11.70;;;3.10;;
76723;SDS011;65650;53.126;17.950;2023-02-02T00:42:18;10.40;;;2.50;;
76723;SDS011;65650;53.126;17.950;2023-02-02T00:44:45;13.20;;;2.10;;
76723;SDS011;65650;53.126;17.950;2023-02-02T00:47:30;9.40;;;1.90;;
76723;SDS011;65650;53.126;17.950;2023-02-02T00:49:56;9.40;;;2.20;;
76723;SDS011;65650;53.126;17.950;2023-02-02T00:52:24;11.80;;;2.80;;
76723;SDS011;65650;53.126;17.950;2023-02-02T00:54:50;15.90;;;3.40;;
76723;SDS011;65650;53.126;17.950;2023-02-02T00:57:17;12.50;;;2.30;;
76723;SDS011;65650;53.126;17.950;2023-02-02T00:59:43;11.50;;;2.60;;
76723;SDS011;65650;53.126;17.950;2023-02-02T01:02:10;9.10;;;1.70;;
76723;SDS011;65650;53.126;17.950;2023-02-02T01:04:37;12.60;;;2.30;;
76723;SDS011;65650;53.126;17.950;2023-02-02T01:07:03;10.80;;;2.50;;
76723;SDS011;65650;53.126;17.950;2023-02-02T01:09:30;8.40;;;1.50;;
76723;SDS011;65650;53.126;17.950;2023-02-02T01:11:56;9.20;;;1.90;;
76723;SDS011;65650;53.126;17.950;2023-02-02T01:14:24;12.40;;;2.20;;
76723;SDS011;65650;53.126;17.950;2023-02-02T01:16:51;15.10;;;3.00;;
76723;SDS011;65650;53.126;17.950;2023-02-02T01:19:17;6.80;;;1.50;;
76723;SDS011;65650;53.126;17.950;2023-02-02T01:21:44;6.60;;;1.60;;
76723;SDS011;65650;53.126;17.950;2023-02-02T01:24:12;15.00;;;3.00;;
76723;SDS011;65650;53.126;17.950;2023-02-02T01:26:39;7.40;;;1.30;;
76723;SDS011;65650;53.126;17.950;2023-02-02T01:29:05;4.90;;;1.50;;
76723;SDS011;65650;53.126;17.950;2023-02-02T01:31:31;8.90;;;1.90;;
76723;SDS011;65650;53.126;17.950;2023-02-02T01:33:58;5.00;;;0.80;;
76723;SDS011;65650;53.126;17.950;2023-02-02T01:36:24;8.90;;;2.30;;
76723;SDS011;65650;53.126;17.950;2023-02-02T01:38:51;3.20;;;1.00;;
76723;SDS011;65650;53.126;17.950;2023-02-02T01:41:19;10.60;;;2.10;;
76723;SDS011;65650;53.126;17.950;2023-02-02T01:46:13;6.40;;;1.50;;
76723;SDS011;65650;53.126;17.950;2023-02-02T01:48:41;8.90;;;1.40;;
76723;SDS011;65650;53.126;17.950;2023-02-02T01:51:10;8.00;;;1.90;;
76723;SDS011;65650;53.126;17.950;2023-02-02T01:53:38;7.00;;;1.50;;
76723;SDS011;65650;53.126;17.950;2023-02-02T01:56:05;7.40;;;1.60;;
76723;SDS011;65650;53.126;17.950;2023-02-02T01:58:34;10.70;;;1.80;;
76723;SDS011;65650;53.126;17.950;2023-02-02T02:01:02;6.70;;;1.30;;
76723;SDS011;65650;53.126;17.950;2023-02-02T02:03:30;5.70;;;1.60;;
76723;SDS011;65650;53.126;17.950;2023-02-02T02:06:00;7.90;;;1.60;;
76723;SDS011;65650;53.126;17.950;2023-02-02T02:08:29;7.50;;;1.60;;
76723;SDS011;65650;53.126;17.950;2023-02-02T02:10:56;11.10;;;1.80;;
76723;SDS011;65650;53.126;17.950;2023-02-02T02:13:23;7.00;;;1.40;;
76723;SDS011;65650;53.126;17.950;2023-02-02T02:16:18;4.40;;;1.30;;
76723;SDS011;65650;53.126;17.950;2023-02-02T02:21:29;11.70;;;1.70;;
76723;SDS011;65650;53.126;17.950;2023-02-02T02:27:28;4.80;;;1.20;;
76723;SDS011;65650;53.126;17.950;2023-02-02T02:30:09;12.00;;;1.80;;
76723;SDS011;65650;53.126;17.950;2023-02-02T02:35:19;12.10;;;1.30;;
76723;SDS011;65650;53.126;17.950;2023-02-02T02:40:25;7.90;;;1.80;;
76723;SDS011;65650;53.126;17.950;2023-02-02T02:42:55;9.10;;;1.80;;
76723;SDS011;65650;53.126;17.950;2023-02-02T02:45:25;11.60;;;1.80;;
76723;SDS011;65650;53.126;17.950;2023-02-02T02:47:52;9.80;;;1.90;;
76723;SDS011;65650;53.126;17.950;2023-02-02T02:50:19;4.20;;;1.00;;
76723;SDS011;65650;53.126;17.950;2023-02-02T02:52:46;8.90;;;1.40;;
76723;SDS011;65650;53.126;17.950;2023-02-02T02:55:14;10.80;;;2.10;;
76723;SDS011;65650;53.126;17.950;2023-02-02T03:02:54;7.30;;;1.80;;
76723;SDS011;65650;53.126;17.950;2023-02-02T03:05:32;6.70;;;1.40;;
76723;SDS011;65650;53.126;17.950;2023-02-02T03:08:10;6.50;;;1.50;;
76723;SDS011;65650;53.126;17.950;2023-02-02T03:10:39;6.90;;;2.00;;
76723;SDS011;65650;53.126;17.950;2023-02-02T03:13:07;6.80;;;1.50;;
76723;SDS011;65650;53.126;17.950;2023-02-02T03:15:34;9.10;;;1.50;;
76723;SDS011;65650;53.126;17.950;2023-02-02T03:18:01;9.50;;;2.40;;
76723;SDS011;65650;53.126;17.950;2023-02-02T03:20:27;8.00;;;1.90;;
76723;SDS011;65650;53.126;17.950;2023-02-02T03:22:53;10.90;;;1.90;;
76723;SDS011;65650;53.126;17.950;2023-02-02T03:25:20;8.80;;;1.60;;
76723;SDS011;65650;53.126;17.950;2023-02-02T03:27:46;19.30;;;1.70;;
76723;SDS011;65650;53.126;17.950;2023-02-02T03:30:13;6.10;;;1.40;;
76723;SDS011;65650;53.126;17.950;2023-02-02T03:32:39;8.70;;;1.70;;
76723;SDS011;65650;53.126;17.950;2023-02-02T03:35:06;7.00;;;1.80;;
76723;SDS011;65650;53.126;17.950;2023-02-02T03:37:33;7.60;;;1.50;;
76723;SDS011;65650;53.126;17.950;2023-02-02T03:39:59;7.20;;;1.50;;
76723;SDS011;65650;53.126;17.950;2023-02-02T03:42:26;3.80;;;1.00;;
76723;SDS011;65650;53.126;17.950;2023-02-02T03:44:52;7.00;;;1.40;;
76723;SDS011;65650;53.126;17.950;2023-02-02T03:47:19;9.60;;;1.80;;
76723;SDS011;65650;53.126;17.950;2023-02-02T03:49:45;5.50;;;1.20;;
76723;SDS011;65650;53.126;17.950;2023-02-02T03:52:12;4.50;;;1.10;;
76723;SDS011;65650;53.126;17.950;2023-02-02T03:54:38;3.90;;;1.20;;
76723;SDS011;65650;53.126;17.950;2023-02-02T03:57:04;7.80;;;1.40;;
76723;SDS011;65650;53.126;17.950;2023-02-02T03:59:31;5.70;;;1.60;;
76723;SDS011;65650;53.126;17.950;2023-02-02T04:01:57;3.60;;;1.40;;
76723;SDS011;65650;53.126;17.950;2023-02-02T04:04:24;3.90;;;1.30;;
76723;SDS011;65650;53.126;17.950;2023-02-02T04:06:50;6.40;;;0.90;;
76723;SDS011;65650;53.126;17.950;2023-02-02T04:09:17;5.20;;;1.60;;
76723;SDS011;65650;53.126;17.950;2023-02-02T04:11:43;3.60;;;1.00;;
76723;SDS011;65650;53.126;17.950;2023-02-02T04:14:10;3.90;;;1.20;;
76723;SDS011;65650;53.126;17.950;2023-02-02T04:16:36;3.40;;;1.10;;
76723;SDS011;65650;53.126;17.950;2023-02-02T04:19:03;4.40;;;1.10;;
76723;SDS011;65650;53.126;17.950;2023-02-02T04:21:29;1.90;;;1.10;;
76723;SDS011;65650;53.126;17.950;2023-02-02T04:23:56;4.20;;;1.20;;
76723;SDS011;65650;53.126;17.950;2023-02-02T04:26:22;3.20;;;1.10;;
76723;SDS011;65650;53.126;17.950;2023-02-02T04:28:52;2.90;;;1.10;;
76723;SDS011;65650;53.126;17.950;2023-02-02T04:31:19;1.40;;;0.80;;
76723;SDS011;65650;53.126;17.950;2023-02-02T04:33:45;7.00;;;2.20;;
76723;SDS011;65650;53.126;17.950;2023-02-02T04:36:12;1.40;;;0.80;;
76723;SDS011;65650;53.126;17.950;2023-02-02T04:38:38;3.40;;;0.90;;
76723;SDS011;65650;53.126;17.950;2023-02-02T04:41:06;7.60;;;1.30;;
76723;SDS011;65650;53.126;17.950;2023-02-02T04:43:33;2.20;;;0.70;;
76723;SDS011;65650;53.126;17.950;2023-02-02T04:46:00;7.10;;;1.70;;
76723;SDS011;65650;53.126;17.950;2023-02-02T04:48:26;10.70;;;2.60;;
76723;SDS011;65650;53.126;17.950;2023-02-02T04:52:13;38.80;;;6.90;;
76723;SDS011;65650;53.126;17.950;2023-02-02T04:54:40;42.50;;;9.70;;
76723;SDS011;65650;53.126;17.950;2023-02-02T04:57:06;21.80;;;5.40;;
76723;SDS011;65650;53.126;17.950;2023-02-02T04:59:33;54.90;;;12.40;;
76723;SDS011;65650;53.126;17.950;2023-02-02T05:01:59;81.10;;;17.20;;
76723;SDS011;65650;53.126;17.950;2023-02-02T05:04:26;68.50;;;17.30;;
76723;SDS011;65650;53.126;17.950;2023-02-02T05:06:52;27.90;;;6.50;;
76723;SDS011;65650;53.126;17.950;2023-02-02T05:09:19;10.80;;;3.60;;
76723;SDS011;65650;53.126;17.950;2023-02-02T05:11:45;15.10;;;7.10;;
76723;SDS011;65650;53.126;17.950;2023-02-02T05:14:12;11.80;;;3.10;;
76723;SDS011;65650;53.126;17.950;2023-02-02T05:16:38;14.50;;;3.60;;
76723;SDS011;65650;53.126;17.950;2023-02-02T05:19:05;10.00;;;3.90;;
76723;SDS011;65650;53.126;17.950;2023-02-02T05:21:31;11.50;;;3.90;;
76723;SDS011;65650;53.126;17.950;2023-02-02T05:23:57;7.90;;;2.90;;
76723;SDS011;65650;53.126;17.950;2023-02-02T05:26:25;8.60;;;2.50;;
76723;SDS011;65650;53.126;17.950;2023-02-02T05:28:52;4.50;;;1.70;;
76723;SDS011;65650;53.126;17.950;2023-02-02T05:31:19;6.40;;;2.20;;
76723;SDS011;65650;53.126;17.950;2023-02-02T05:33:45;9.50;;;2.90;;
76723;SDS011;65650;53.126;17.950;2023-02-02T05:36:12;11.00;;;3.70;;
76723;SDS011;65650;53.126;17.950;2023-02-02T05:38:38;11.30;;;3.60;;
76723;SDS011;65650;53.126;17.950;2023-02-02T05:41:05;9.00;;;3.50;;
76723;SDS011;65650;53.126;17.950;2023-02-02T05:43:32;9.60;;;3.80;;
76723;SDS011;65650;53.126;17.950;2023-02-02T05:45:58;11.80;;;4.00;;
76723;SDS011;65650;53.126;17.950;2023-02-02T05:48:27;6.80;;;2.80;;
76723;SDS011;65650;53.126;17.950;2023-02-02T05:53:23;21.00;;;11.40;;
76723;SDS011;65650;53.126;17.950;2023-02-02T05:55:50;6.70;;;2.30;;
76723;SDS011;65650;53.126;17.950;2023-02-02T05:58:17;5.70;;;1.80;;
76723;SDS011;65650;53.126;17.950;2023-02-02T06:00:43;4.00;;;1.70;;
76723;SDS011;65650;53.126;17.950;2023-02-02T06:03:10;11.30;;;2.50;;
76723;SDS011;65650;53.126;17.950;2023-02-02T06:05:38;6.40;;;2.50;;
76723;SDS011;65650;53.126;17.950;2023-02-02T06:08:04;8.80;;;3.80;;
76723;SDS011;65650;53.126;17.950;2023-02-02T06:10:33;7.60;;;2.70;;
76723;SDS011;65650;53.126;17.950;2023-02-02T06:12:59;8.10;;;3.10;;
76723;SDS011;65650;53.126;17.950;2023-02-02T06:15:26;7.90;;;3.30;;
76723;SDS011;65650;53.126;17.950;2023-02-02T06:17:54;7.00;;;2.60;;
76723;SDS011;65650;53.126;17.950;2023-02-02T06:20:20;8.80;;;3.20;;
76723;SDS011;65650;53.126;17.950;2023-02-02T06:22:46;7.10;;;3.20;;
76723;SDS011;65650;53.126;17.950;2023-02-02T06:25:13;11.80;;;4.80;;
76723;SDS011;65650;53.126;17.950;2023-02-02T06:27:40;10.20;;;4.20;;
76723;SDS011;65650;53.126;17.950;2023-02-02T06:30:06;13.50;;;5.40;;
76723;SDS011;65650;53.126;17.950;2023-02-02T06:32:33;6.50;;;2.60;;
76723;SDS011;65650;53.126;17.950;2023-02-02T06:34:59;9.00;;;2.90;;
76723;SDS011;65650;53.126;17.950;2023-02-02T06:37:26;17.30;;;7.00;;
76723;SDS011;65650;53.126;17.950;2023-02-02T06:39:52;10.50;;;4.10;;
76723;SDS011;65650;53.126;17.950;2023-02-02T06:42:19;17.80;;;6.10;;
76723;SDS011;65650;53.126;17.950;2023-02-02T06:44:47;25.10;;;14.60;;
76723;SDS011;65650;53.126;17.950;2023-02-02T06:47:14;11.60;;;4.20;;
76723;SDS011;65650;53.126;17.950;2023-02-02T06:49:40;12.10;;;5.00;;
76723;SDS011;65650;53.126;17.950;2023-02-02T06:52:08;9.20;;;3.20;;
76723;SDS011;65650;53.126;17.950;2023-02-02T06:54:34;8.80;;;3.20;;
76723;SDS011;65650;53.126;17.950;2023-02-02T06:57:01;5.40;;;1.90;;
76723;SDS011;65650;53.126;17.950;2023-02-02T06:59:27;10.90;;;4.30;;
76723;SDS011;65650;53.126;17.950;2023-02-02T07:01:54;6.90;;;3.30;;
76723;SDS011;65650;53.126;17.950;2023-02-02T07:04:20;7.40;;;2.90;;
76723;SDS011;65650;53.126;17.950;2023-02-02T07:06:47;11.80;;;4.90;;
76723;SDS011;65650;53.126;17.950;2023-02-02T07:09:13;8.70;;;3.60;;
76723;SDS011;65650;53.126;17.950;2023-02-02T07:11:40;16.00;;;5.40;;
76723;SDS011;65650;53.126;17.950;2023-02-02T07:14:06;10.60;;;4.30;;
76723;SDS011;65650;53.126;17.950;2023-02-02T07:16:33;22.30;;;8.60;;
76723;SDS011;65650;53.126;17.950;2023-02-02T07:19:00;21.70;;;10.20;;
76723;SDS011;65650;53.126;17.950;2023-02-02T07:21:26;15.60;;;6.70;;
76723;SDS011;65650;53.126;17.950;2023-02-02T07:24:01;39.10;;;12.30;;
76723;SDS011;65650;53.126;17.950;2023-02-02T07:26:27;45.90;;;13.30;;
76723;SDS011;65650;53.126;17.950;2023-02-02T07:28:54;26.90;;;9.20;;
76723;SDS011;65650;53.126;17.950;2023-02-02T07:31:22;19.40;;;6.30;;
76723;SDS011;65650;53.126;17.950;2023-02-02T07:33:49;21.00;;;6.50;;
76723;SDS011;65650;53.126;17.950;2023-02-02T07:36:17;25.30;;;8.20;;
76723;SDS011;65650;53.126;17.950;2023-02-02T07:38:44;23.50;;;7.50;;
76723;SDS011;65650;53.126;17.950;2023-02-02T07:41:12;25.10;;;7.30;;
76723;SDS011;65650;53.126;17.950;2023-02-02T07:43:39;18.60;;;6.50;;
76723;SDS011;65650;53.126;17.950;2023-02-02T07:46:06;62.10;;;16.80;;
76723;SDS011;65650;53.126;17.950;2023-02-02T07:48:35;108.60;;;27.20;;
76723;SDS011;65650;53.126;17.950;2023-02-02T07:51:02;85.90;;;22.00;;
76723;SDS011;65650;53.126;17.950;2023-02-02T07:53:29;59.80;;;17.70;;
76723;SDS011;65650;53.126;17.950;2023-02-02T07:58:31;48.70;;;12.80;;
76723;SDS011;65650;53.126;17.950;2023-02-02T08:01:04;25.60;;;8.40;;
76723;SDS011;65650;53.126;17.950;2023-02-02T08:03:31;66.20;;;19.00;;
76723;SDS011;65650;53.126;17.950;2023-02-02T08:05:57;25.30;;;6.80;;
76723;SDS011;65650;53.126;17.950;2023-02-02T08:08:24;43.40;;;13.40;;
76723;SDS011;65650;53.126;17.950;2023-02-02T08:10:51;48.40;;;15.00;;
76723;SDS011;65650;53.126;17.950;2023-02-02T08:13:18;56.20;;;16.10;;
76723;SDS011;65650;53.126;17.950;2023-02-02T08:15:45;22.60;;;6.60;;
76723;SDS011;65650;53.126;17.950;2023-02-02T08:18:11;16.00;;;5.30;;
76723;SDS011;65650;53.126;17.950;2023-02-02T08:20:38;38.50;;;10.30;;
76723;SDS011;65650;53.126;17.950;2023-02-02T08:23:04;13.60;;;4.20;;
76723;SDS011;65650;53.126;17.950;2023-02-02T08:25:34;14.50;;;4.50;;
76723;SDS011;65650;53.126;17.950;2023-02-02T08:28:00;13.80;;;4.90;;
76723;SDS011;65650;53.126;17.950;2023-02-02T08:30:28;14.90;;;5.10;;
76723;SDS011;65650;53.126;17.950;2023-02-02T08:32:54;22.20;;;8.50;;
76723;SDS011;65650;53.126;17.950;2023-02-02T08:35:20;15.50;;;5.40;;
76723;SDS011;65650;53.126;17.950;2023-02-02T08:37:48;14.50;;;4.80;;
76723;SDS011;65650;53.126;17.950;2023-02-02T08:40:14;17.30;;;5.50;;
76723;SDS011;65650;53.126;17.950;2023-02-02T08:42:41;13.00;;;4.60;;
76723;SDS011;65650;53.126;17.950;2023-02-02T08:45:08;10.10;;;3.60;;
76723;SDS011;65650;53.126;17.950;2023-02-02T08:47:35;7.30;;;2.80;;
76723;SDS011;65650;53.126;17.950;2023-02-02T08:50:01;6.60;;;2.60;;
76723;SDS011;65650;53.126;17.950;2023-02-02T08:52:28;12.40;;;4.20;;
76723;SDS011;65650;53.126;17.950;2023-02-02T08:54:54;6.90;;;2.50;;
76723;SDS011;65650;53.126;17.950;2023-02-02T08:57:21;8.50;;;2.80;;
76723;SDS011;65650;53.126;17.950;2023-02-02T08:59:47;14.40;;;5.70;;
76723;SDS011;65650;53.126;17.950;2023-02-02T09:02:13;15.40;;;5.10;;
76723;SDS011;65650;53.126;17.950;2023-02-02T09:04:40;16.10;;;5.20;;
76723;SDS011;65650;53.126;17.950;2023-02-02T09:07:10;29.00;;;8.10;;
76723;SDS011;65650;53.126;17.950;2023-02-02T09:09:36;15.70;;;5.00;;
76723;SDS011;65650;53.126;17.950;2023-02-02T09:12:03;11.80;;;3.70;;
76723;SDS011;65650;53.126;17.950;2023-02-02T09:14:30;10.30;;;3.60;;
76723;SDS011;65650;53.126;17.950;2023-02-02T09:16:56;6.00;;;1.50;;
76723;SDS011;65650;53.126;17.950;2023-02-02T09:19:22;5.10;;;1.50;;
76723;SDS011;65650;53.126;17.950;2023-02-02T09:21:49;2.50;;;1.20;;
76723;SDS011;65650;53.126;17.950;2023-02-02T09:24:16;3.30;;;1.10;;
76723;SDS011;65650;53.126;17.950;2023-02-02T09:26:42;3.80;;;1.30;;
76723;SDS011;65650;53.126;17.950;2023-02-02T09:29:10;11.30;;;3.70;;
76723;SDS011;65650;53.126;17.950;2023-02-02T09:31:38;7.10;;;2.60;;
76723;SDS011;65650;53.126;17.950;2023-02-02T09:34:05;6.60;;;2.00;;
76723;SDS011;65650;53.126;17.950;2023-02-02T09:36:32;5.00;;;1.50;;
76723;SDS011;65650;53.126;17.950;2023-02-02T09:38:59;6.20;;;1.60;;
76723;SDS011;65650;53.126;17.950;2023-02-02T09:49:13;11.40;;;4.00;;
76723;SDS011;65650;53.126;17.950;2023-02-02T09:51:45;9.00;;;4.20;;
76723;SDS011;65650;53.126;17.950;2023-02-02T09:54:19;5.10;;;1.90;;
76723;SDS011;65650;53.126;17.950;2023-02-02T09:56:50;6.60;;;1.70;;
76723;SDS011;65650;53.126;17.950;2023-02-02T09:59:21;20.00;;;6.80;;
76723;SDS011;65650;53.126;17.950;2023-02-02T10:01:50;13.30;;;4.50;;
76723;SDS011;65650;53.126;17.950;2023-02-02T10:06:52;15.50;;;6.50;;
76723;SDS011;65650;53.126;17.950;2023-02-02T10:11:57;22.50;;;7.10;;
76723;SDS011;65650;53.126;17.950;2023-02-02T10:14:37;11.80;;;3.10;;
76723;SDS011;65650;53.126;17.950;2023-02-02T10:17:20;13.80;;;4.80;;
76723;SDS011;65650;53.126;17.950;2023-02-02T10:19:50;14.80;;;5.50;;
76723;SDS011;65650;53.126;17.950;2023-02-02T10:22:20;10.80;;;2.90;;
76723;SDS011;65650;53.126;17.950;2023-02-02T10:24:48;10.80;;;3.70;;
76723;SDS011;65650;53.126;17.950;2023-02-02T10:27:15;12.30;;;3.50;;
76723;SDS011;65650;53.126;17.950;2023-02-02T10:29:58;9.30;;;2.70;;
76723;SDS011;65650;53.126;17.950;2023-02-02T10:32:37;10.10;;;4.10;;
76723;SDS011;65650;53.126;17.950;2023-02-02T10:35:20;11.50;;;4.00;;
76723;SDS011;65650;53.126;17.950;2023-02-02T10:46:07;122.40;;;42.60;;
76723;SDS011;65650;53.126;17.950;2023-02-02T10:48:34;30.80;;;12.30;;
76723;SDS011;65650;53.126;17.950;2023-02-02T10:51:02;12.20;;;5.20;;
76723;SDS011;65650;53.126;17.950;2023-02-02T10:53:29;7.80;;;2.40;;
76723;SDS011;65650;53.126;17.950;2023-02-02T10:56:06;8.90;;;2.40;;
76723;SDS011;65650;53.126;17.950;2023-02-02T10:58:39;3.80;;;1.40;;
76723;SDS011;65650;53.126;17.950;2023-02-02T11:01:09;9.50;;;3.40;;
76723;SDS011;65650;53.126;17.950;2023-02-02T11:03:43;29.20;;;9.50;;
76723;SDS011;65650;53.126;17.950;2023-02-02T11:06:10;46.60;;;15.40;;
76723;SDS011;65650;53.126;17.950;2023-02-02T11:08:55;34.80;;;11.30;;
76723;SDS011;65650;53.126;17.950;2023-02-02T11:11:23;20.30;;;6.80;;
76723;SDS011;65650;53.126;17.950;2023-02-02T11:13:54;10.40;;;3.70;;
76723;SDS011;65650;53.126;17.950;2023-02-02T11:16:24;12.20;;;4.00;;
76723;SDS011;65650;53.126;17.950;2023-02-02T11:18:52;11.70;;;4.20;;
76723;SDS011;65650;53.126;17.950;2023-02-02T11:24:14;8.20;;;3.50;;
76723;SDS011;65650;53.126;17.950;2023-02-02T11:27:06;21.50;;;7.10;;
76723;SDS011;65650;53.126;17.950;2023-02-02T11:30:00;9.60;;;3.70;;
76723;SDS011;65650;53.126;17.950;2023-02-02T11:32:19;9.50;;;3.70;;
76723;SDS011;65650;53.126;17.950;2023-02-02T11:37:35;15.60;;;6.90;;
76723;SDS011;65650;53.126;17.950;2023-02-02T11:42:49;12.30;;;4.30;;
76723;SDS011;65650;53.126;17.950;2023-02-02T11:45:17;10.00;;;4.50;;
76723;SDS011;65650;53.126;17.950;2023-02-02T11:47:44;14.40;;;4.50;;
76723;SDS011;65650;53.126;17.950;2023-02-02T11:50:16;13.10;;;4.80;;
76723;SDS011;65650;53.126;17.950;2023-02-02T11:52:44;11.30;;;3.90;;
76723;SDS011;65650;53.126;17.950;2023-02-02T11:55:15;14.60;;;4.80;;
76723;SDS011;65650;53.126;17.950;2023-02-02T11:58:08;23.50;;;7.70;;
76723;SDS011;65650;53.126;17.950;2023-02-02T12:00:28;46.10;;;13.70;;
76723;SDS011;65650;53.126;17.950;2023-02-02T12:02:55;22.70;;;7.70;;
76723;SDS011;65650;53.126;17.950;2023-02-02T12:07:49;15.00;;;5.10;;
76723;SDS011;65650;53.126;17.950;2023-02-02T12:10:22;23.10;;;9.10;;
76723;SDS011;65650;53.126;17.950;2023-02-02T12:12:54;18.90;;;7.50;;
76723;SDS011;65650;53.126;17.950;2023-02-02T12:15:34;20.10;;;7.80;;
76723;SDS011;65650;53.126;17.950;2023-02-02T12:26:00;14.40;;;4.70;;
76723;SDS011;65650;53.126;17.950;2023-02-02T12:39:19;19.10;;;6.40;;
76723;SDS011;65650;53.126;17.950;2023-02-02T12:44:37;11.00;;;3.70;;
76723;SDS011;65650;53.126;17.950;2023-02-02T12:53:02;15.60;;;6.00;;
76723;SDS011;65650;53.126;17.950;2023-02-02T12:57:52;13.00;;;4.50;;
76723;SDS011;65650;53.126;17.950;2023-02-02T13:03:08;8.80;;;3.40;;
76723;SDS011;65650;53.126;17.950;2023-02-02T13:08:09;18.00;;;7.20;;
76723;SDS011;65650;53.126;17.950;2023-02-02T13:10:48;15.20;;;6.70;;
76723;SDS011;65650;53.126;17.950;2023-02-02T13:13:17;15.70;;;6.10;;
76723;SDS011;65650;53.126;17.950;2023-02-02T13:15:46;13.40;;;6.00;;
76723;SDS011;65650;53.126;17.950;2023-02-02T13:18:57;10.20;;;4.10;;
76723;SDS011;65650;53.126;17.950;2023-02-02T13:21:07;9.40;;;3.80;;
76723;SDS011;65650;53.126;17.950;2023-02-02T13:23:38;9.00;;;4.20;;
76723;SDS011;65650;53.126;17.950;2023-02-02T13:26:06;10.80;;;3.80;;
76723;SDS011;65650;53.126;17.950;2023-02-02T13:31:11;11.50;;;4.40;;
76723;SDS011;65650;53.126;17.950;2023-02-02T13:33:38;12.20;;;5.60;;
76723;SDS011;65650;53.126;17.950;2023-02-02T13:36:14;8.80;;;3.40;;
76723;SDS011;65650;53.126;17.950;2023-02-02T13:38:43;7.10;;;2.90;;
76723;SDS011;65650;53.126;17.950;2023-02-02T13:41:11;7.20;;;3.10;;
76723;SDS011;65650;53.126;17.950;2023-02-02T13:43:51;8.60;;;3.50;;
76723;SDS011;65650;53.126;17.950;2023-02-02T13:48:56;12.00;;;5.30;;
76723;SDS011;65650;53.126;17.950;2023-02-02T13:59:17;12.10;;;5.60;;
76723;SDS011;65650;53.126;17.950;2023-02-02T14:01:48;8.60;;;3.60;;
76723;SDS011;65650;53.126;17.950;2023-02-02T14:04:19;12.90;;;6.50;;
76723;SDS011;65650;53.126;17.950;2023-02-02T14:06:50;16.50;;;6.70;;
76723;SDS011;65650;53.126;17.950;2023-02-02T14:09:19;14.90;;;5.70;;
76723;SDS011;65650;53.126;17.950;2023-02-02T14:11:57;16.00;;;6.50;;
76723;SDS011;65650;53.126;17.950;2023-02-02T14:14:24;17.70;;;8.30;;
76723;SDS011;65650;53.126;17.950;2023-02-02T14:17:05;20.20;;;8.10;;
76723;SDS011;65650;53.126;17.950;2023-02-02T14:31:57;13.70;;;5.30;;
76723;SDS011;65650;53.126;17.950;2023-02-02T14:39:28;9.00;;;3.40;;
76723;SDS011;65650;53.126;17.950;2023-02-02T14:42:02;13.50;;;4.80;;
76723;SDS011;65650;53.126;17.950;2023-02-02T14:50:26;8.40;;;3.10;;
76723;SDS011;65650;53.126;17.950;2023-02-02T14:53:00;7.10;;;2.70;;
76723;SDS011;65650;53.126;17.950;2023-02-02T14:55:27;8.60;;;3.40;;
76723;SDS011;65650;53.126;17.950;2023-02-02T14:57:55;7.80;;;2.60;;
76723;SDS011;65650;53.126;17.950;2023-02-02T15:00:33;7.30;;;2.70;;
76723;SDS011;65650;53.126;17.950;2023-02-02T15:05:45;21.70;;;10.70;;
76723;SDS011;65650;53.126;17.950;2023-02-02T15:08:20;15.80;;;6.70;;
76723;SDS011;65650;53.126;17.950;2023-02-02T15:13:15;14.30;;;6.10;;
76723;SDS011;65650;53.126;17.950;2023-02-02T15:15:45;17.60;;;6.70;;
76723;SDS011;65650;53.126;17.950;2023-02-02T15:18:13;13.50;;;5.10;;
76723;SDS011;65650;53.126;17.950;2023-02-02T15:20:44;15.10;;;5.50;;
76723;SDS011;65650;53.126;17.950;2023-02-02T15:25:55;9.40;;;3.10;;
76723;SDS011;65650;53.126;17.950;2023-02-02T15:28:24;6.20;;;2.00;;
76723;SDS011;65650;53.126;17.950;2023-02-02T15:30:57;15.90;;;4.80;;
76723;SDS011;65650;53.126;17.950;2023-02-02T15:33:37;7.70;;;3.30;;
76723;SDS011;65650;53.126;17.950;2023-02-02T15:36:08;9.00;;;3.10;;
76723;SDS011;65650;53.126;17.950;2023-02-02T15:38:37;18.00;;;6.60;;
76723;SDS011;65650;53.126;17.950;2023-02-02T15:41:05;17.00;;;6.00;;
76723;SDS011;65650;53.126;17.950;2023-02-02T15:43:34;15.10;;;5.30;;
76723;SDS011;65650;53.126;17.950;2023-02-02T15:46:01;11.20;;;4.30;;
76723;SDS011;65650;53.126;17.950;2023-02-02T15:48:30;9.30;;;3.60;;
76723;SDS011;65650;53.126;17.950;2023-02-02T15:50:58;14.10;;;4.80;;
76723;SDS011;65650;53.126;17.950;2023-02-02T15:53:26;27.90;;;8.70;;
76723;SDS011;65650;53.126;17.950;2023-02-02T15:55:54;22.20;;;6.70;;
76723;SDS011;65650;53.126;17.950;2023-02-02T15:58:23;19.70;;;7.10;;
76723;SDS011;65650;53.126;17.950;2023-02-02T16:00:57;23.70;;;6.80;;
76723;SDS011;65650;53.126;17.950;2023-02-02T16:03:31;20.90;;;6.40;;
76723;SDS011;65650;53.126;17.950;2023-02-02T16:06:02;12.90;;;4.20;;
76723;SDS011;65650;53.126;17.950;2023-02-02T16:08:30;21.60;;;6.10;;
76723;SDS011;65650;53.126;17.950;2023-02-02T16:11:21;9.20;;;3.40;;
76723;SDS011;65650;53.126;17.950;2023-02-02T16:16:28;13.60;;;3.50;;
76723;SDS011;65650;53.126;17.950;2023-02-02T16:21:27;11.90;;;4.80;;
76723;SDS011;65650;53.126;17.950;2023-02-02T16:23:54;7.90;;;3.60;;
76723;SDS011;65650;53.126;17.950;2023-02-02T16:26:21;12.80;;;4.70;;
76723;SDS011;65650;53.126;17.950;2023-02-02T16:28:50;14.90;;;4.80;;
76723;SDS011;65650;53.126;17.950;2023-02-02T16:31:17;14.40;;;4.80;;
76723;SDS011;65650;53.126;17.950;2023-02-02T16:33:43;15.00;;;4.30;;
76723;SDS011;65650;53.126;17.950;2023-02-02T16:36:18;12.40;;;4.40;;
76723;SDS011;65650;53.126;17.950;2023-02-02T16:38:45;12.50;;;4.80;;
76723;SDS011;65650;53.126;17.950;2023-02-02T16:43:50;10.50;;;3.90;;
76723;SDS011;65650;53.126;17.950;2023-02-02T16:46:38;13.10;;;4.80;;
76723;SDS011;65650;53.126;17.950;2023-02-02T16:49:03;10.50;;;3.90;;
76723;SDS011;65650;53.126;17.950;2023-02-02T16:51:31;10.20;;;4.10;;
76723;SDS011;65650;53.126;17.950;2023-02-02T16:54:41;13.20;;;5.20;;
76723;SDS011;65650;53.126;17.950;2023-02-02T16:56:51;17.40;;;5.80;;
76723;SDS011;65650;53.126;17.950;2023-02-02T16:59:25;12.70;;;5.10;;